sensor_id;sensor_type;location;lat;lon;timestamp;P1;durP1;ratioP1;P2;durP2;ratioP2
37305;SDS011;23193;42.656;21.170;2023-12-07T00:00:35;183.00;;;88.63;;
37305;SDS011;23193;42.656;21.170;2023-12-07T00:03:02;179.00;;;92.93;;
37305;SDS011;23193;42.656;21.170;2023-12-07T00:05:29;194.73;;;98.72;;
37305;SDS011;23193;42.656;21.170;2023-12-07T00:07:56;172.77;;;86.90;;
37305;SDS011;23193;42.656;21.170;2023-12-07T00:10:23;166.35;;;87.35;;
37305;SDS011;23193;42.656;21.170;2023-12-07T00:12:50;137.18;;;71.57;;
37305;SDS011;23193;42.656;21.170;2023-12-07T00:15:17;172.85;;;85.50;;
37305;SDS011;23193;42.656;21.170;2023-12-07T00:17:44;159.88;;;81.72;;
37305;SDS011;23193;42.656;21.170;2023-12-07T00:20:11;151.30;;;78.28;;
37305;SDS011;23193;42.656;21.170;2023-12-07T00:22:38;165.25;;;80.88;;
37305;SDS011;23193;42.656;21.170;2023-12-07T00:25:05;147.40;;;75.03;;
37305;SDS011;23193;42.656;21.170;2023-12-07T00:27:33;123.88;;;64.07;;
37305;SDS011;23193;42.656;21.170;2023-12-07T00:30:00;102.38;;;52.63;;
37305;SDS011;23193;42.656;21.170;2023-12-07T00:32:27;101.82;;;52.90;;
37305;SDS011;23193;42.656;21.170;2023-12-07T00:34:54;97.75;;;49.67;;
37305;SDS011;23193;42.656;21.170;2023-12-07T00:37:21;94.72;;;48.22;;
37305;SDS011;23193;42.656;21.170;2023-12-07T00:39:49;88.72;;;43.38;;
37305;SDS011;23193;42.656;21.170;2023-12-07T00:42:16;88.32;;;45.70;;
37305;SDS011;23193;42.656;21.170;2023-12-07T00:44:42;74.90;;;38.45;;
37305;SDS011;23193;42.656;21.170;2023-12-07T00:47:10;65.70;;;34.05;;
37305;SDS011;23193;42.656;21.170;2023-12-07T00:49:37;67.18;;;35.13;;
37305;SDS011;23193;42.656;21.170;2023-12-07T00:52:05;63.10;;;33.60;;
37305;SDS011;23193;42.656;21.170;2023-12-07T00:54:32;63.13;;;34.80;;
37305;SDS011;23193;42.656;21.170;2023-12-07T00:56:59;53.03;;;28.70;;
37305;SDS011;23193;42.656;21.170;2023-12-07T00:59:26;50.85;;;28.42;;
37305;SDS011;23193;42.656;21.170;2023-12-07T01:01:53;54.38;;;29.90;;
37305;SDS011;23193;42.656;21.170;2023-12-07T01:04:20;50.83;;;26.98;;
37305;SDS011;23193;42.656;21.170;2023-12-07T01:06:47;55.38;;;27.45;;
37305;SDS011;23193;42.656;21.170;2023-12-07T01:09:15;53.10;;;24.15;;
37305;SDS011;23193;42.656;21.170;2023-12-07T01:11:42;42.92;;;24.92;;
37305;SDS011;23193;42.656;21.170;2023-12-07T01:14:09;52.60;;;26.40;;
37305;SDS011;23193;42.656;21.170;2023-12-07T01:16:37;53.97;;;27.55;;
37305;SDS011;23193;42.656;21.170;2023-12-07T01:19:04;48.90;;;26.83;;
37305;SDS011;23193;42.656;21.170;2023-12-07T01:21:32;57.28;;;30.98;;
37305;SDS011;23193;42.656;21.170;2023-12-07T01:23:59;47.65;;;27.80;;
37305;SDS011;23193;42.656;21.170;2023-12-07T01:26:42;48.13;;;26.95;;
37305;SDS011;23193;42.656;21.170;2023-12-07T01:29:09;43.10;;;24.33;;
37305;SDS011;23193;42.656;21.170;2023-12-07T01:31:36;43.88;;;24.23;;
37305;SDS011;23193;42.656;21.170;2023-12-07T01:34:03;49.67;;;26.75;;
37305;SDS011;23193;42.656;21.170;2023-12-07T01:36:30;53.70;;;30.20;;
37305;SDS011;23193;42.656;21.170;2023-12-07T01:38:58;58.03;;;30.85;;
37305;SDS011;23193;42.656;21.170;2023-12-07T01:41:25;55.30;;;31.85;;
37305;SDS011;23193;42.656;21.170;2023-12-07T01:43:52;60.53;;;31.48;;
37305;SDS011;23193;42.656;21.170;2023-12-07T01:46:19;50.33;;;28.63;;
37305;SDS011;23193;42.656;21.170;2023-12-07T01:48:46;61.05;;;31.40;;
37305;SDS011;23193;42.656;21.170;2023-12-07T01:51:17;53.97;;;28.95;;
37305;SDS011;23193;42.656;21.170;2023-12-07T01:53:44;56.42;;;30.83;;
37305;SDS011;23193;42.656;21.170;2023-12-07T01:56:12;50.05;;;26.88;;
37305;SDS011;23193;42.656;21.170;2023-12-07T01:58:39;50.13;;;25.95;;
37305;SDS011;23193;42.656;21.170;2023-12-07T02:01:06;49.88;;;27.15;;
37305;SDS011;23193;42.656;21.170;2023-12-07T02:03:34;46.55;;;25.60;;
37305;SDS011;23193;42.656;21.170;2023-12-07T02:06:01;40.10;;;23.55;;
37305;SDS011;23193;42.656;21.170;2023-12-07T02:08:28;51.60;;;29.23;;
37305;SDS011;23193;42.656;21.170;2023-12-07T02:10:55;48.47;;;26.33;;
37305;SDS011;23193;42.656;21.170;2023-12-07T02:13:22;41.80;;;22.65;;
37305;SDS011;23193;42.656;21.170;2023-12-07T02:15:49;38.70;;;22.08;;
37305;SDS011;23193;42.656;21.170;2023-12-07T02:23:24;45.00;;;23.42;;
37305;SDS011;23193;42.656;21.170;2023-12-07T02:26:12;36.15;;;19.92;;
37305;SDS011;23193;42.656;21.170;2023-12-07T02:28:40;40.22;;;23.70;;
37305;SDS011;23193;42.656;21.170;2023-12-07T02:31:07;30.83;;;18.33;;
37305;SDS011;23193;42.656;21.170;2023-12-07T02:33:34;32.42;;;18.10;;
37305;SDS011;23193;42.656;21.170;2023-12-07T02:36:02;31.98;;;17.45;;
37305;SDS011;23193;42.656;21.170;2023-12-07T02:38:29;30.08;;;16.67;;
37305;SDS011;23193;42.656;21.170;2023-12-07T02:40:56;28.05;;;16.05;;
37305;SDS011;23193;42.656;21.170;2023-12-07T02:43:23;33.58;;;18.50;;
37305;SDS011;23193;42.656;21.170;2023-12-07T02:45:51;28.95;;;15.75;;
37305;SDS011;23193;42.656;21.170;2023-12-07T02:48:20;30.25;;;17.25;;
37305;SDS011;23193;42.656;21.170;2023-12-07T02:50:47;27.67;;;15.15;;
37305;SDS011;23193;42.656;21.170;2023-12-07T02:53:14;26.48;;;14.57;;
37305;SDS011;23193;42.656;21.170;2023-12-07T02:55:41;27.95;;;14.57;;
37305;SDS011;23193;42.656;21.170;2023-12-07T02:58:08;24.60;;;13.85;;
37305;SDS011;23193;42.656;21.170;2023-12-07T03:00:35;28.80;;;14.45;;
37305;SDS011;23193;42.656;21.170;2023-12-07T03:03:03;25.33;;;13.85;;
37305;SDS011;23193;42.656;21.170;2023-12-07T03:05:30;21.95;;;13.32;;
37305;SDS011;23193;42.656;21.170;2023-12-07T03:07:57;20.70;;;12.80;;
37305;SDS011;23193;42.656;21.170;2023-12-07T03:10:24;24.88;;;12.90;;
37305;SDS011;23193;42.656;21.170;2023-12-07T03:12:51;21.67;;;12.27;;
37305;SDS011;23193;42.656;21.170;2023-12-07T03:15:18;18.83;;;11.85;;
37305;SDS011;23193;42.656;21.170;2023-12-07T03:17:45;18.92;;;12.13;;
37305;SDS011;23193;42.656;21.170;2023-12-07T03:20:12;19.90;;;11.55;;
37305;SDS011;23193;42.656;21.170;2023-12-07T03:22:39;18.98;;;12.05;;
37305;SDS011;23193;42.656;21.170;2023-12-07T03:25:07;19.73;;;11.07;;
37305;SDS011;23193;42.656;21.170;2023-12-07T03:27:34;18.27;;;10.85;;
37305;SDS011;23193;42.656;21.170;2023-12-07T03:30:01;17.67;;;11.38;;
37305;SDS011;23193;42.656;21.170;2023-12-07T03:32:29;22.80;;;12.13;;
37305;SDS011;23193;42.656;21.170;2023-12-07T03:34:56;18.48;;;11.38;;
37305;SDS011;23193;42.656;21.170;2023-12-07T03:37:23;21.80;;;11.98;;
37305;SDS011;23193;42.656;21.170;2023-12-07T03:39:50;20.00;;;11.60;;
37305;SDS011;23193;42.656;21.170;2023-12-07T03:42:17;19.55;;;10.68;;
37305;SDS011;23193;42.656;21.170;2023-12-07T03:45:04;19.70;;;11.93;;
37305;SDS011;23193;42.656;21.170;2023-12-07T03:47:32;30.75;;;18.42;;
37305;SDS011;23193;42.656;21.170;2023-12-07T03:49:59;34.38;;;22.20;;
37305;SDS011;23193;42.656;21.170;2023-12-07T03:52:26;23.70;;;14.43;;
37305;SDS011;23193;42.656;21.170;2023-12-07T03:54:54;19.63;;;12.18;;
37305;SDS011;23193;42.656;21.170;2023-12-07T03:57:21;14.40;;;9.63;;
37305;SDS011;23193;42.656;21.170;2023-12-07T03:59:48;20.80;;;15.63;;
37305;SDS011;23193;42.656;21.170;2023-12-07T04:02:15;14.50;;;6.82;;
37305;SDS011;23193;42.656;21.170;2023-12-07T04:04:42;14.63;;;9.75;;
37305;SDS011;23193;42.656;21.170;2023-12-07T04:07:09;14.32;;;8.05;;
37305;SDS011;23193;42.656;21.170;2023-12-07T04:09:36;18.90;;;13.15;;
37305;SDS011;23193;42.656;21.170;2023-12-07T04:12:03;12.48;;;8.18;;
37305;SDS011;23193;42.656;21.170;2023-12-07T04:14:30;8.80;;;6.15;;
37305;SDS011;23193;42.656;21.170;2023-12-07T04:16:57;9.02;;;5.28;;
37305;SDS011;23193;42.656;21.170;2023-12-07T04:19:24;9.73;;;6.10;;
37305;SDS011;23193;42.656;21.170;2023-12-07T04:21:51;9.10;;;5.70;;
37305;SDS011;23193;42.656;21.170;2023-12-07T04:24:19;6.47;;;3.92;;
37305;SDS011;23193;42.656;21.170;2023-12-07T04:26:46;6.57;;;4.05;;
37305;SDS011;23193;42.656;21.170;2023-12-07T04:29:13;9.35;;;4.45;;
37305;SDS011;23193;42.656;21.170;2023-12-07T04:31:40;8.40;;;4.45;;
37305;SDS011;23193;42.656;21.170;2023-12-07T04:34:07;6.88;;;3.83;;
37305;SDS011;23193;42.656;21.170;2023-12-07T04:36:34;8.48;;;4.72;;
37305;SDS011;23193;42.656;21.170;2023-12-07T04:39:01;5.68;;;3.60;;
37305;SDS011;23193;42.656;21.170;2023-12-07T04:41:28;7.07;;;3.83;;
37305;SDS011;23193;42.656;21.170;2023-12-07T04:43:55;3.58;;;2.38;;
37305;SDS011;23193;42.656;21.170;2023-12-07T04:46:22;2.97;;;2.22;;
37305;SDS011;23193;42.656;21.170;2023-12-07T04:48:49;3.92;;;2.67;;
37305;SDS011;23193;42.656;21.170;2023-12-07T04:51:16;8.50;;;2.35;;
37305;SDS011;23193;42.656;21.170;2023-12-07T04:53:43;2.67;;;2.15;;
37305;SDS011;23193;42.656;21.170;2023-12-07T04:56:10;3.60;;;1.88;;
37305;SDS011;23193;42.656;21.170;2023-12-07T04:58:37;6.25;;;3.50;;
37305;SDS011;23193;42.656;21.170;2023-12-07T05:01:04;8.90;;;4.38;;
37305;SDS011;23193;42.656;21.170;2023-12-07T05:03:31;7.22;;;4.18;;
37305;SDS011;23193;42.656;21.170;2023-12-07T05:05:58;6.15;;;4.00;;
37305;SDS011;23193;42.656;21.170;2023-12-07T05:08:26;5.35;;;3.58;;
37305;SDS011;23193;42.656;21.170;2023-12-07T05:10:53;5.50;;;3.47;;
37305;SDS011;23193;42.656;21.170;2023-12-07T05:13:20;7.85;;;3.60;;
37305;SDS011;23193;42.656;21.170;2023-12-07T05:15:47;4.15;;;3.20;;
37305;SDS011;23193;42.656;21.170;2023-12-07T05:18:15;6.55;;;3.95;;
37305;SDS011;23193;42.656;21.170;2023-12-07T05:20:42;7.13;;;4.03;;
37305;SDS011;23193;42.656;21.170;2023-12-07T05:23:10;5.90;;;4.10;;
37305;SDS011;23193;42.656;21.170;2023-12-07T05:25:37;7.50;;;4.40;;
37305;SDS011;23193;42.656;21.170;2023-12-07T05:28:04;8.30;;;4.85;;
37305;SDS011;23193;42.656;21.170;2023-12-07T05:30:31;6.63;;;4.15;;
37305;SDS011;23193;42.656;21.170;2023-12-07T05:32:58;7.00;;;3.85;;
37305;SDS011;23193;42.656;21.170;2023-12-07T05:35:25;14.90;;;8.57;;
37305;SDS011;23193;42.656;21.170;2023-12-07T05:37:52;4.45;;;3.58;;
37305;SDS011;23193;42.656;21.170;2023-12-07T05:40:19;6.68;;;4.07;;
37305;SDS011;23193;42.656;21.170;2023-12-07T05:42:49;6.45;;;3.90;;
37305;SDS011;23193;42.656;21.170;2023-12-07T05:45:16;3.92;;;3.10;;
37305;SDS011;23193;42.656;21.170;2023-12-07T05:47:43;5.50;;;3.63;;
37305;SDS011;23193;42.656;21.170;2023-12-07T05:50:10;7.45;;;3.67;;
37305;SDS011;23193;42.656;21.170;2023-12-07T05:52:37;4.88;;;3.83;;
37305;SDS011;23193;42.656;21.170;2023-12-07T05:55:04;15.88;;;7.35;;
37305;SDS011;23193;42.656;21.170;2023-12-07T05:57:32;14.18;;;8.30;;
37305;SDS011;23193;42.656;21.170;2023-12-07T05:59:59;11.07;;;6.72;;
37305;SDS011;23193;42.656;21.170;2023-12-07T06:02:26;7.20;;;4.95;;
37305;SDS011;23193;42.656;21.170;2023-12-07T06:04:54;8.40;;;5.63;;
37305;SDS011;23193;42.656;21.170;2023-12-07T06:07:21;9.73;;;6.95;;
37305;SDS011;23193;42.656;21.170;2023-12-07T06:09:48;11.85;;;7.30;;
37305;SDS011;23193;42.656;21.170;2023-12-07T06:12:15;13.25;;;8.40;;
37305;SDS011;23193;42.656;21.170;2023-12-07T06:14:42;17.30;;;10.57;;
37305;SDS011;23193;42.656;21.170;2023-12-07T06:17:09;19.98;;;11.98;;
37305;SDS011;23193;42.656;21.170;2023-12-07T06:19:36;75.50;;;37.58;;
37305;SDS011;23193;42.656;21.170;2023-12-07T06:22:04;18.65;;;10.25;;
37305;SDS011;23193;42.656;21.170;2023-12-07T06:24:31;31.20;;;16.15;;
37305;SDS011;23193;42.656;21.170;2023-12-07T06:26:59;16.73;;;10.10;;
37305;SDS011;23193;42.656;21.170;2023-12-07T06:29:28;20.90;;;12.10;;
37305;SDS011;23193;42.656;21.170;2023-12-07T06:31:56;15.15;;;8.93;;
37305;SDS011;23193;42.656;21.170;2023-12-07T06:34:23;11.82;;;7.30;;
37305;SDS011;23193;42.656;21.170;2023-12-07T06:36:51;11.63;;;7.20;;
37305;SDS011;23193;42.656;21.170;2023-12-07T06:39:17;16.85;;;9.25;;
37305;SDS011;23193;42.656;21.170;2023-12-07T06:41:45;17.42;;;10.50;;
37305;SDS011;23193;42.656;21.170;2023-12-07T06:44:12;26.52;;;13.18;;
37305;SDS011;23193;42.656;21.170;2023-12-07T06:46:39;25.38;;;13.40;;
37305;SDS011;23193;42.656;21.170;2023-12-07T06:49:06;19.58;;;10.77;;
37305;SDS011;23193;42.656;21.170;2023-12-07T06:51:33;14.07;;;8.23;;
37305;SDS011;23193;42.656;21.170;2023-12-07T06:54:00;14.02;;;8.88;;
37305;SDS011;23193;42.656;21.170;2023-12-07T06:56:27;17.80;;;10.55;;
37305;SDS011;23193;42.656;21.170;2023-12-07T06:58:54;13.73;;;10.23;;
37305;SDS011;23193;42.656;21.170;2023-12-07T07:01:21;15.32;;;9.10;;
37305;SDS011;23193;42.656;21.170;2023-12-07T07:03:48;15.63;;;9.27;;
37305;SDS011;23193;42.656;21.170;2023-12-07T07:06:15;36.38;;;20.40;;
37305;SDS011;23193;42.656;21.170;2023-12-07T07:08:42;26.70;;;13.73;;
37305;SDS011;23193;42.656;21.170;2023-12-07T07:11:11;15.82;;;10.18;;
37305;SDS011;23193;42.656;21.170;2023-12-07T07:13:40;21.05;;;10.70;;
37305;SDS011;23193;42.656;21.170;2023-12-07T07:16:08;12.23;;;8.23;;
37305;SDS011;23193;42.656;21.170;2023-12-07T07:18:37;17.33;;;10.02;;
37305;SDS011;23193;42.656;21.170;2023-12-07T07:21:04;17.35;;;10.43;;
37305;SDS011;23193;42.656;21.170;2023-12-07T07:23:31;19.45;;;10.32;;
37305;SDS011;23193;42.656;21.170;2023-12-07T07:25:58;16.30;;;10.38;;
37305;SDS011;23193;42.656;21.170;2023-12-07T07:28:25;13.93;;;9.07;;
37305;SDS011;23193;42.656;21.170;2023-12-07T07:30:53;15.23;;;10.02;;
37305;SDS011;23193;42.656;21.170;2023-12-07T07:33:20;20.05;;;10.15;;
37305;SDS011;23193;42.656;21.170;2023-12-07T07:35:47;22.88;;;11.85;;
37305;SDS011;23193;42.656;21.170;2023-12-07T07:38:17;20.08;;;11.70;;
37305;SDS011;23193;42.656;21.170;2023-12-07T07:40:44;18.08;;;10.93;;
37305;SDS011;23193;42.656;21.170;2023-12-07T07:43:12;15.52;;;9.40;;
37305;SDS011;23193;42.656;21.170;2023-12-07T07:45:39;20.80;;;12.90;;
37305;SDS011;23193;42.656;21.170;2023-12-07T07:48:06;31.52;;;15.82;;
37305;SDS011;23193;42.656;21.170;2023-12-07T07:50:33;17.73;;;10.48;;
37305;SDS011;23193;42.656;21.170;2023-12-07T07:53:03;18.98;;;10.32;;
37305;SDS011;23193;42.656;21.170;2023-12-07T07:55:30;21.30;;;9.75;;
37305;SDS011;23193;42.656;21.170;2023-12-07T07:57:58;19.05;;;11.20;;
37305;SDS011;23193;42.656;21.170;2023-12-07T08:00:24;18.23;;;9.32;;
37305;SDS011;23193;42.656;21.170;2023-12-07T08:02:52;20.27;;;11.73;;
37305;SDS011;23193;42.656;21.170;2023-12-07T08:05:19;18.20;;;11.35;;
37305;SDS011;23193;42.656;21.170;2023-12-07T08:07:46;23.45;;;11.95;;
37305;SDS011;23193;42.656;21.170;2023-12-07T08:10:13;20.05;;;9.82;;
37305;SDS011;23193;42.656;21.170;2023-12-07T08:12:41;18.45;;;11.13;;
37305;SDS011;23193;42.656;21.170;2023-12-07T08:15:08;20.17;;;12.35;;
37305;SDS011;23193;42.656;21.170;2023-12-07T08:17:41;23.55;;;12.85;;
37305;SDS011;23193;42.656;21.170;2023-12-07T08:20:09;20.50;;;11.47;;
37305;SDS011;23193;42.656;21.170;2023-12-07T08:22:40;17.80;;;10.50;;
37305;SDS011;23193;42.656;21.170;2023-12-07T08:25:10;10.32;;;6.18;;
37305;SDS011;23193;42.656;21.170;2023-12-07T08:27:38;11.65;;;5.93;;
37305;SDS011;23193;42.656;21.170;2023-12-07T08:30:05;17.05;;;8.50;;
37305;SDS011;23193;42.656;21.170;2023-12-07T08:32:33;15.07;;;8.57;;
37305;SDS011;23193;42.656;21.170;2023-12-07T08:35:00;17.80;;;10.43;;
37305;SDS011;23193;42.656;21.170;2023-12-07T08:37:27;15.02;;;9.57;;
37305;SDS011;23193;42.656;21.170;2023-12-07T08:39:54;19.92;;;11.07;;
37305;SDS011;23193;42.656;21.170;2023-12-07T08:42:21;36.58;;;19.13;;
37305;SDS011;23193;42.656;21.170;2023-12-07T08:44:48;15.70;;;10.38;;
37305;SDS011;23193;42.656;21.170;2023-12-07T08:47:15;17.27;;;7.75;;
37305;SDS011;23193;42.656;21.170;2023-12-07T08:49:42;12.18;;;6.82;;
37305;SDS011;23193;42.656;21.170;2023-12-07T08:52:09;15.73;;;8.77;;
37305;SDS011;23193;42.656;21.170;2023-12-07T08:54:56;16.30;;;9.15;;
37305;SDS011;23193;42.656;21.170;2023-12-07T08:57:23;18.23;;;10.00;;
37305;SDS011;23193;42.656;21.170;2023-12-07T08:59:51;10.77;;;6.90;;
37305;SDS011;23193;42.656;21.170;2023-12-07T09:02:18;100.43;;;44.55;;
37305;SDS011;23193;42.656;21.170;2023-12-07T09:05:03;19.10;;;10.10;;
37305;SDS011;23193;42.656;21.170;2023-12-07T09:07:31;13.73;;;8.30;;
37305;SDS011;23193;42.656;21.170;2023-12-07T09:09:58;13.40;;;8.85;;
37305;SDS011;23193;42.656;21.170;2023-12-07T09:12:25;21.95;;;12.18;;
37305;SDS011;23193;42.656;21.170;2023-12-07T09:15:03;18.80;;;9.85;;
37305;SDS011;23193;42.656;21.170;2023-12-07T09:17:31;21.23;;;12.40;;
37305;SDS011;23193;42.656;21.170;2023-12-07T09:19:58;19.75;;;12.02;;
37305;SDS011;23193;42.656;21.170;2023-12-07T09:22:25;26.13;;;13.65;;
37305;SDS011;23193;42.656;21.170;2023-12-07T09:25:02;15.75;;;9.18;;
37305;SDS011;23193;42.656;21.170;2023-12-07T09:27:30;24.13;;;10.70;;
37305;SDS011;23193;42.656;21.170;2023-12-07T09:30:00;13.48;;;7.90;;
37305;SDS011;23193;42.656;21.170;2023-12-07T09:32:28;17.30;;;8.80;;
37305;SDS011;23193;42.656;21.170;2023-12-07T09:35:03;17.27;;;10.90;;
37305;SDS011;23193;42.656;21.170;2023-12-07T09:37:31;20.02;;;11.55;;
37305;SDS011;23193;42.656;21.170;2023-12-07T09:39:58;16.40;;;9.65;;
37305;SDS011;23193;42.656;21.170;2023-12-07T09:42:28;19.65;;;11.35;;
37305;SDS011;23193;42.656;21.170;2023-12-07T09:45:02;23.90;;;12.07;;
37305;SDS011;23193;42.656;21.170;2023-12-07T09:47:30;25.73;;;14.52;;
37305;SDS011;23193;42.656;21.170;2023-12-07T09:50:04;58.83;;;23.23;;
37305;SDS011;23193;42.656;21.170;2023-12-07T09:52:32;70.03;;;22.67;;
37305;SDS011;23193;42.656;21.170;2023-12-07T09:55:00;47.05;;;18.45;;
37305;SDS011;23193;42.656;21.170;2023-12-07T09:57:28;35.70;;;19.10;;
37305;SDS011;23193;42.656;21.170;2023-12-07T09:59:57;36.25;;;19.08;;
37305;SDS011;23193;42.656;21.170;2023-12-07T10:02:24;25.00;;;14.43;;
37305;SDS011;23193;42.656;21.170;2023-12-07T10:05:05;20.35;;;11.55;;
37305;SDS011;23193;42.656;21.170;2023-12-07T10:07:40;32.53;;;16.10;;
37305;SDS011;23193;42.656;21.170;2023-12-07T10:10:07;28.63;;;12.88;;
37305;SDS011;23193;42.656;21.170;2023-12-07T10:12:34;23.17;;;13.73;;
37305;SDS011;23193;42.656;21.170;2023-12-07T10:15:11;34.10;;;15.73;;
37305;SDS011;23193;42.656;21.170;2023-12-07T10:17:43;28.38;;;12.98;;
37305;SDS011;23193;42.656;21.170;2023-12-07T10:20:11;18.13;;;9.57;;
37305;SDS011;23193;42.656;21.170;2023-12-07T10:22:39;22.25;;;11.57;;
37305;SDS011;23193;42.656;21.170;2023-12-07T10:25:07;25.35;;;12.35;;
37305;SDS011;23193;42.656;21.170;2023-12-07T10:27:34;23.48;;;12.00;;
37305;SDS011;23193;42.656;21.170;2023-12-07T10:30:02;19.58;;;9.02;;
37305;SDS011;23193;42.656;21.170;2023-12-07T10:32:29;27.02;;;14.32;;
37305;SDS011;23193;42.656;21.170;2023-12-07T10:34:56;41.63;;;19.48;;
37305;SDS011;23193;42.656;21.170;2023-12-07T10:37:25;22.80;;;13.35;;
37305;SDS011;23193;42.656;21.170;2023-12-07T10:39:53;23.83;;;13.25;;
37305;SDS011;23193;42.656;21.170;2023-12-07T10:42:20;32.78;;;15.18;;
37305;SDS011;23193;42.656;21.170;2023-12-07T10:44:50;24.90;;;12.35;;
37305;SDS011;23193;42.656;21.170;2023-12-07T10:47:20;18.23;;;9.13;;
37305;SDS011;23193;42.656;21.170;2023-12-07T10:49:51;23.30;;;12.63;;
37305;SDS011;23193;42.656;21.170;2023-12-07T10:52:20;18.58;;;10.35;;
37305;SDS011;23193;42.656;21.170;2023-12-07T10:57:19;19.50;;;10.85;;
37305;SDS011;23193;42.656;21.170;2023-12-07T10:59:46;23.95;;;12.43;;
37305;SDS011;23193;42.656;21.170;2023-12-07T11:02:19;22.25;;;10.95;;
37305;SDS011;23193;42.656;21.170;2023-12-07T11:04:48;49.45;;;18.77;;
37305;SDS011;23193;42.656;21.170;2023-12-07T11:07:17;27.27;;;13.70;;
37305;SDS011;23193;42.656;21.170;2023-12-07T11:12:17;15.85;;;8.50;;
37305;SDS011;23193;42.656;21.170;2023-12-07T11:17:12;32.40;;;17.15;;
37305;SDS011;23193;42.656;21.170;2023-12-07T11:19:48;24.05;;;12.32;;
37305;SDS011;23193;42.656;21.170;2023-12-07T11:22:15;20.70;;;11.23;;
37305;SDS011;23193;42.656;21.170;2023-12-07T11:24:52;15.88;;;9.00;;
37305;SDS011;23193;42.656;21.170;2023-12-07T11:27:21;15.43;;;8.65;;
37305;SDS011;23193;42.656;21.170;2023-12-07T11:29:48;18.95;;;10.70;;
37305;SDS011;23193;42.656;21.170;2023-12-07T11:32:15;29.23;;;14.73;;
37305;SDS011;23193;42.656;21.170;2023-12-07T11:34:54;46.65;;;24.38;;
37305;SDS011;23193;42.656;21.170;2023-12-07T11:37:21;25.98;;;13.52;;
37305;SDS011;23193;42.656;21.170;2023-12-07T11:39:48;30.08;;;14.65;;
37305;SDS011;23193;42.656;21.170;2023-12-07T11:42:17;24.42;;;11.45;;
37305;SDS011;23193;42.656;21.170;2023-12-07T11:44:47;21.20;;;10.32;;
37305;SDS011;23193;42.656;21.170;2023-12-07T11:49:43;28.02;;;13.93;;
37305;SDS011;23193;42.656;21.170;2023-12-07T11:52:17;34.42;;;15.90;;
37305;SDS011;23193;42.656;21.170;2023-12-07T11:54:46;27.52;;;13.18;;
37305;SDS011;23193;42.656;21.170;2023-12-07T11:57:13;25.95;;;11.45;;
37305;SDS011;23193;42.656;21.170;2023-12-07T11:59:44;11.60;;;7.68;;
37305;SDS011;23193;42.656;21.170;2023-12-07T12:02:12;34.35;;;16.50;;
37305;SDS011;23193;42.656;21.170;2023-12-07T12:04:42;29.35;;;14.82;;
37305;SDS011;23193;42.656;21.170;2023-12-07T12:07:10;41.85;;;23.15;;
37305;SDS011;23193;42.656;21.170;2023-12-07T12:09:37;36.10;;;17.10;;
37305;SDS011;23193;42.656;21.170;2023-12-07T12:12:04;32.20;;;16.95;;
37305;SDS011;23193;42.656;21.170;2023-12-07T12:14:32;39.33;;;18.90;;
37305;SDS011;23193;42.656;21.170;2023-12-07T12:16:59;33.53;;;19.15;;
37305;SDS011;23193;42.656;21.170;2023-12-07T12:19:26;23.85;;;13.68;;
37305;SDS011;23193;42.656;21.170;2023-12-07T12:22:03;27.55;;;15.68;;
37305;SDS011;23193;42.656;21.170;2023-12-07T12:24:37;29.25;;;18.10;;
37305;SDS011;23193;42.656;21.170;2023-12-07T12:27:04;27.73;;;17.08;;
37305;SDS011;23193;42.656;21.170;2023-12-07T12:29:32;30.40;;;16.40;;
37305;SDS011;23193;42.656;21.170;2023-12-07T12:32:04;32.25;;;17.63;;
37305;SDS011;23193;42.656;21.170;2023-12-07T12:34:33;31.88;;;16.80;;
37305;SDS011;23193;42.656;21.170;2023-12-07T12:37:02;32.80;;;19.35;;
37305;SDS011;23193;42.656;21.170;2023-12-07T12:39:33;44.03;;;24.92;;
37305;SDS011;23193;42.656;21.170;2023-12-07T12:42:02;156.85;;;73.45;;
37305;SDS011;23193;42.656;21.170;2023-12-07T12:44:30;113.93;;;57.15;;
37305;SDS011;23193;42.656;21.170;2023-12-07T12:47:07;38.13;;;21.35;;
37305;SDS011;23193;42.656;21.170;2023-12-07T12:49:38;29.10;;;16.10;;
37305;SDS011;23193;42.656;21.170;2023-12-07T12:52:14;40.25;;;21.88;;
37305;SDS011;23193;42.656;21.170;2023-12-07T12:54:43;32.75;;;17.77;;
37305;SDS011;23193;42.656;21.170;2023-12-07T12:57:11;35.95;;;20.27;;
37305;SDS011;23193;42.656;21.170;2023-12-07T12:59:38;29.20;;;17.13;;
37305;SDS011;23193;42.656;21.170;2023-12-07T13:02:05;33.85;;;18.98;;
37305;SDS011;23193;42.656;21.170;2023-12-07T13:04:33;39.53;;;21.05;;
37305;SDS011;23193;42.656;21.170;2023-12-07T13:07:03;43.80;;;25.02;;
37305;SDS011;23193;42.656;21.170;2023-12-07T13:09:31;47.25;;;24.27;;
37305;SDS011;23193;42.656;21.170;2023-12-07T13:12:00;31.48;;;18.58;;
37305;SDS011;23193;42.656;21.170;2023-12-07T13:14:33;32.35;;;18.02;;
37305;SDS011;23193;42.656;21.170;2023-12-07T13:17:05;33.83;;;18.02;;
37305;SDS011;23193;42.656;21.170;2023-12-07T13:19:34;30.58;;;17.55;;
37305;SDS011;23193;42.656;21.170;2023-12-07T13:22:03;38.60;;;19.65;;
37305;SDS011;23193;42.656;21.170;2023-12-07T13:24:30;39.05;;;19.17;;
37305;SDS011;23193;42.656;21.170;2023-12-07T13:26:57;60.53;;;35.65;;
37305;SDS011;23193;42.656;21.170;2023-12-07T13:29:27;42.50;;;23.55;;
37305;SDS011;23193;42.656;21.170;2023-12-07T13:32:03;47.40;;;28.30;;
37305;SDS011;23193;42.656;21.170;2023-12-07T13:34:30;46.70;;;25.88;;
37305;SDS011;23193;42.656;21.170;2023-12-07T13:36:59;39.85;;;23.60;;
37305;SDS011;23193;42.656;21.170;2023-12-07T13:39:26;39.15;;;23.40;;
37305;SDS011;23193;42.656;21.170;2023-12-07T13:41:57;34.33;;;19.90;;
37305;SDS011;23193;42.656;21.170;2023-12-07T13:44:28;45.55;;;24.42;;
37305;SDS011;23193;42.656;21.170;2023-12-07T13:46:55;58.08;;;28.80;;
37305;SDS011;23193;42.656;21.170;2023-12-07T13:49:24;62.17;;;31.83;;
37305;SDS011;23193;42.656;21.170;2023-12-07T13:52:00;48.83;;;26.70;;
37305;SDS011;23193;42.656;21.170;2023-12-07T13:54:38;58.88;;;30.15;;
37305;SDS011;23193;42.656;21.170;2023-12-07T13:57:20;54.15;;;27.90;;
37305;SDS011;23193;42.656;21.170;2023-12-07T13:59:48;49.90;;;27.02;;
37305;SDS011;23193;42.656;21.170;2023-12-07T14:02:18;50.17;;;27.38;;
37305;SDS011;23193;42.656;21.170;2023-12-07T14:04:48;50.58;;;27.23;;
37305;SDS011;23193;42.656;21.170;2023-12-07T14:07:19;47.08;;;27.95;;
37305;SDS011;23193;42.656;21.170;2023-12-07T14:09:49;50.15;;;27.77;;
37305;SDS011;23193;42.656;21.170;2023-12-07T14:12:25;42.35;;;24.27;;
37305;SDS011;23193;42.656;21.170;2023-12-07T14:14:53;42.75;;;24.40;;
37305;SDS011;23193;42.656;21.170;2023-12-07T14:17:22;37.60;;;22.20;;
37305;SDS011;23193;42.656;21.170;2023-12-07T14:20:07;44.47;;;18.17;;
37305;SDS011;23193;42.656;21.170;2023-12-07T14:22:55;31.08;;;17.13;;
37305;SDS011;23193;42.656;21.170;2023-12-07T14:25:23;37.63;;;20.48;;
37305;SDS011;23193;42.656;21.170;2023-12-07T14:27:51;40.40;;;23.70;;
37305;SDS011;23193;42.656;21.170;2023-12-07T14:30:18;37.95;;;22.55;;
37305;SDS011;23193;42.656;21.170;2023-12-07T14:32:45;42.95;;;21.92;;
37305;SDS011;23193;42.656;21.170;2023-12-07T14:35:19;46.15;;;24.35;;